createdAt,value
2023-03-11T00:03:10.201Z,1.13
2023-03-11T00:07:14.418Z,1.14
2023-03-11T00:11:17.133Z,1.16
2023-03-11T00:15:20.732Z,1.17
2023-03-11T00:19:24.796Z,1.18
2023-03-11T00:23:28.906Z,1.18
2023-03-11T00:27:31.543Z,1.20
2023-03-11T00:31:34.271Z,1.18
2023-03-11T00:35:38.439Z,1.22
2023-03-11T00:39:41.146Z,1.17
2023-03-11T00:43:43.909Z,1.13
2023-03-11T00:47:47.207Z,1.12
2023-03-11T00:51:51.285Z,1.07
2023-03-11T00:55:54.024Z,1.10
2023-03-11T00:59:57.088Z,1.08
2023-03-11T01:04:00.751Z,1.08
2023-03-11T01:08:05.783Z,1.07
2023-03-11T01:12:08.553Z,1.06
2023-03-11T01:16:11.276Z,1.08
2023-03-11T01:20:14.784Z,1.07
2023-03-11T01:24:18.964Z,1.06
2023-03-11T01:28:21.654Z,1.09
2023-03-11T01:32:24.501Z,1.13
2023-03-11T01:36:27.787Z,1.11
2023-03-11T01:40:34.214Z,1.12
2023-03-11T01:44:40.992Z,1.06
2023-03-11T01:48:47.645Z,1.05
2023-03-11T01:52:50.628Z,1.04
2023-03-11T01:56:56.597Z,1.04
2023-03-11T02:01:00.938Z,1.04
2023-03-11T02:05:04.898Z,1.08
2023-03-11T02:09:08.546Z,1.11
2023-03-11T02:13:13.294Z,1.08
2023-03-11T02:17:16.990Z,1.07
2023-03-11T02:21:25.041Z,1.06
2023-03-11T02:25:35.419Z,1.05
2023-03-11T02:29:42.360Z,0.99
2023-03-11T02:33:48.092Z,0.98
2023-03-11T02:37:53.502Z,0.96
2023-03-11T02:41:57.775Z,0.96
2023-03-11T02:46:03.440Z,0.97
2023-03-11T02:50:10.439Z,0.96
2023-03-11T02:54:13.652Z,0.96
2023-03-11T02:58:17.590Z,0.98
2023-03-11T03:02:21.808Z,0.97
2023-03-11T03:06:25.215Z,0.98
2023-03-11T03:10:28.726Z,0.97
2023-03-11T03:14:33.261Z,0.91
2023-03-11T03:18:37.412Z,0.91
2023-03-11T03:22:40.808Z,0.88
2023-03-11T03:26:45.272Z,0.93
2023-03-11T03:30:48.511Z,0.93
2023-03-11T03:34:58.239Z,0.92
2023-03-11T03:39:10.068Z,0.93
2023-03-11T03:43:13.730Z,0.92
2023-03-11T03:47:21.126Z,0.95
2023-03-11T03:51:25.402Z,0.99
2023-03-11T03:55:36.931Z,0.98
2023-03-11T03:59:39.738Z,0.98
2023-03-11T04:03:42.667Z,0.98
2023-03-11T04:07:49.989Z,0.99
2023-03-11T04:11:53.510Z,1.01
2023-03-11T04:15:56.639Z,0.95
2023-03-11T04:19:59.555Z,0.95
2023-03-11T04:24:03.978Z,0.97
2023-03-11T04:28:10.653Z,0.97
2023-03-11T04:32:13.369Z,0.94
2023-03-11T04:36:17.580Z,0.90
2023-03-11T04:40:22.073Z,0.85
2023-03-11T04:44:25.016Z,0.78
2023-03-11T04:48:27.834Z,0.68
2023-03-11T04:52:30.942Z,0.67
2023-03-11T04:56:35.256Z,0.70
2023-03-11T05:00:39.311Z,0.69
2023-03-11T05:04:45.636Z,0.59
2023-03-11T05:08:50.332Z,0.52
2023-03-11T05:12:54.916Z,0.52
2023-03-11T05:17:00.770Z,0.49
2023-03-11T05:21:05.480Z,0.49
2023-03-11T05:25:10.685Z,0.43
2023-03-11T05:29:15.701Z,0.39
2023-03-11T05:33:18.466Z,0.32
2023-03-11T05:37:22.262Z,0.33
2023-03-11T05:41:26.733Z,0.25
2023-03-11T05:45:30.999Z,0.21
2023-03-11T05:49:36.153Z,0.18
2023-03-11T05:53:39.542Z,0.19
2023-03-11T05:57:42.315Z,0.21
2023-03-11T06:01:46.552Z,0.24
2023-03-11T06:05:51.026Z,0.21
2023-03-11T06:09:54.595Z,0.21
2023-03-11T06:13:59.066Z,0.25
2023-03-11T06:18:06.227Z,0.26
2023-03-11T06:22:11.021Z,0.25
2023-03-11T06:26:15.707Z,0.22
2023-03-11T06:30:20.870Z,0.22
2023-03-11T06:34:42.035Z,0.22
2023-03-11T06:38:46.469Z,0.19
2023-03-11T06:42:50.318Z,0.14
2023-03-11T06:46:55.117Z,0.12
2023-03-11T06:51:01.238Z,0.13
2023-03-11T06:55:06.958Z,0.11
2023-03-11T06:59:09.972Z,0.08
2023-03-11T07:03:12.797Z,0.09
2023-03-11T07:07:17.133Z,0.12
2023-03-11T07:11:22.235Z,0.14
2023-03-11T07:15:27.248Z,0.15
2023-03-11T07:19:30.208Z,0.16
2023-03-11T07:23:35.239Z,0.20
2023-03-11T07:27:39.132Z,0.30
2023-03-11T07:31:42.439Z,0.36
2023-03-11T07:35:45.872Z,0.41
2023-03-11T07:39:50.139Z,0.41
2023-03-11T07:43:55.455Z,0.42
2023-03-11T07:47:58.415Z,0.44
2023-03-11T07:52:01.126Z,0.46
2023-03-11T07:56:06.364Z,0.48
2023-03-11T08:00:12.596Z,0.54
2023-03-11T08:04:16.988Z,0.57
2023-03-11T08:08:19.922Z,0.59
2023-03-11T08:12:24.229Z,0.65
2023-03-11T08:16:28.162Z,0.66
2023-03-11T08:20:31.033Z,0.68
2023-03-11T08:24:35.676Z,0.75
2023-03-11T08:28:40.043Z,0.81
2023-03-11T08:32:43.152Z,0.91
2023-03-11T08:36:46.097Z,1.00
2023-03-11T08:40:48.794Z,1.12
2023-03-11T08:44:52.826Z,1.19
2023-03-11T08:48:57.575Z,1.32
2023-03-11T08:53:03.213Z,1.38
2023-03-11T08:57:05.986Z,1.43
2023-03-11T09:01:11.880Z,1.48
2023-03-11T09:05:14.944Z,1.53
2023-03-11T09:09:20.279Z,1.55
2023-03-11T09:13:23.314Z,1.61
2023-03-11T09:17:27.713Z,1.70
2023-03-11T09:21:30.725Z,1.78
2023-03-11T09:25:34.007Z,1.85
2023-03-11T09:29:40.130Z,1.93
2023-03-11T09:33:46.289Z,2.04
2023-03-11T09:37:49.456Z,2.19
2023-03-11T09:41:58.885Z,2.32
2023-03-11T09:46:08.323Z,2.47
2023-03-11T09:50:27.651Z,2.67
2023-03-11T09:54:39.349Z,2.83
2023-03-11T09:58:47.089Z,3.00
2023-03-11T10:02:50.814Z,3.04
2023-03-11T10:07:00.577Z,3.07
2023-03-11T10:11:13.632Z,3.09
2023-03-11T10:15:24.288Z,3.15
2023-03-11T10:19:40.385Z,3.19
2023-03-11T10:24:00.432Z,3.22
2023-03-11T10:28:08.780Z,3.20
2023-03-11T10:32:20.329Z,3.26
2023-03-11T10:36:31.848Z,3.31
2023-03-11T10:40:40.802Z,3.45
2023-03-11T10:44:48.438Z,3.60
2023-03-11T10:48:52.054Z,3.61
2023-03-11T10:53:10.009Z,3.69
2023-03-11T10:57:26.915Z,3.81
2023-03-11T11:01:33.099Z,3.92
2023-03-11T11:05:37.886Z,4.11
2023-03-11T11:09:41.112Z,4.31
2023-03-11T11:13:57.830Z,4.34
2023-03-11T11:18:04.569Z,4.41
2023-03-11T11:22:17.461Z,4.58
2023-03-11T11:26:22.989Z,4.75
2023-03-11T11:30:28.435Z,4.89
2023-03-11T11:34:34.279Z,5.03
2023-03-11T11:38:37.309Z,5.08
2023-03-11T11:42:45.150Z,5.26
2023-03-11T11:46:56.321Z,5.46
2023-03-11T11:51:02.393Z,5.52
2023-03-11T11:55:16.982Z,5.52
2023-03-11T11:59:23.013Z,5.62
2023-03-11T12:04:04.722Z,5.69
2023-03-11T12:08:18.322Z,5.73
2023-03-11T12:12:28.758Z,5.75
2023-03-11T12:16:41.423Z,5.77
2023-03-11T12:20:48.673Z,5.85
2023-03-11T12:25:06.979Z,5.88
2023-03-11T12:29:19.920Z,5.71
2023-03-11T12:33:31.489Z,5.73
2023-03-11T12:37:38.033Z,5.96
2023-03-11T12:41:42.758Z,6.15
2023-03-11T12:45:50.155Z,6.31
2023-03-11T12:49:55.218Z,6.41
2023-03-11T12:53:59.551Z,6.66
2023-03-11T12:58:28.204Z,6.77
2023-03-11T13:02:59.029Z,6.96
2023-03-11T13:07:26.710Z,7.18
2023-03-11T13:11:44.586Z,6.91
2023-03-11T13:15:47.372Z,6.88
2023-03-11T13:19:53.706Z,7.09
2023-03-11T13:24:41.564Z,6.98
2023-03-11T13:29:12.247Z,6.93
2023-03-11T13:33:26.494Z,6.99
2023-03-11T13:37:41.589Z,6.87
2023-03-11T13:41:45.830Z,6.84
2023-03-11T13:45:54.289Z,6.86
2023-03-11T13:50:03.843Z,6.94
2023-03-11T13:54:36.722Z,6.98
2023-03-11T13:58:39.515Z,6.91
2023-03-11T14:02:48.615Z,6.99
2023-03-11T14:06:53.101Z,6.92
2023-03-11T14:10:57.913Z,6.83
2023-03-11T14:15:05.156Z,6.87
2023-03-11T14:19:16.679Z,6.96
2023-03-11T14:23:24.318Z,7.03
2023-03-11T14:27:29.312Z,7.09
2023-03-11T14:31:33.915Z,7.23
2023-03-11T14:35:42.616Z,7.19
2023-03-11T14:39:47.661Z,7.15
2023-03-11T14:43:54.994Z,7.19
2023-03-11T14:48:03.430Z,7.19
2023-03-11T14:52:17.500Z,7.22
2023-03-11T14:56:23.778Z,7.08
2023-03-11T15:00:31.988Z,6.82
2023-03-11T15:04:44.210Z,6.73
2023-03-11T15:08:53.596Z,6.76
2023-03-11T15:13:10.149Z,6.66
2023-03-11T15:17:37.129Z,6.69
2023-03-11T15:21:47.419Z,6.75
2023-03-11T15:25:53.145Z,6.72
2023-03-11T15:29:57.038Z,6.69
2023-03-11T15:34:11.039Z,6.57
2023-03-11T15:38:21.543Z,6.53
2023-03-11T15:42:27.707Z,6.51
2023-03-11T15:46:31.691Z,6.38
2023-03-11T15:50:50.608Z,6.28
2023-03-11T15:54:57.276Z,6.14
2023-03-11T15:59:03.527Z,6.03
2023-03-11T16:03:06.926Z,5.96
2023-03-11T16:07:10.930Z,5.90
2023-03-11T16:11:14.018Z,5.83
2023-03-11T16:15:25.034Z,5.82
2023-03-11T16:19:27.771Z,5.78
2023-03-11T16:23:50.153Z,5.73
2023-03-11T16:27:56.438Z,5.64
2023-03-11T16:32:00.613Z,5.54
2023-03-11T16:36:16.629Z,5.49
2023-03-11T16:40:20.938Z,5.49
2023-03-11T16:44:24.795Z,5.46
2023-03-11T16:48:30.080Z,5.39
2023-03-11T16:52:34.268Z,5.35
2023-03-11T16:56:43.098Z,5.29
2023-03-11T17:00:47.883Z,5.27
2023-03-11T17:04:52.556Z,5.22
2023-03-11T17:08:55.402Z,5.10
2023-03-11T17:12:58.404Z,5.06
2023-03-11T17:17:01.449Z,5.02
2023-03-11T17:21:09.394Z,4.96
2023-03-11T17:25:12.599Z,4.88
2023-03-11T17:29:15.545Z,4.79
2023-03-11T17:33:18.578Z,4.71
2023-03-11T17:37:30.282Z,4.60
2023-03-11T17:41:33.547Z,4.54
2023-03-11T17:45:39.018Z,4.46
2023-03-11T17:49:41.956Z,4.36
2023-03-11T17:53:48.348Z,4.21
2023-03-11T17:57:53.298Z,4.08
2023-03-11T18:01:57.158Z,3.98
2023-03-11T18:06:01.471Z,3.90
2023-03-11T18:10:06.445Z,3.81
2023-03-11T18:14:10.050Z,3.71
2023-03-11T18:18:13.300Z,3.55
2023-03-11T18:22:16.950Z,3.41
2023-03-11T18:26:21.795Z,3.29
2023-03-11T18:30:25.495Z,3.15
2023-03-11T18:34:28.389Z,3.04
2023-03-11T18:38:31.353Z,2.92
2023-03-11T18:42:35.734Z,2.83
2023-03-11T18:46:41.448Z,2.72
2023-03-11T18:50:44.682Z,2.64
2023-03-11T18:54:48.590Z,2.58
2023-03-11T18:58:55.296Z,2.48
2023-03-11T19:02:58.550Z,2.40
2023-03-11T19:07:01.217Z,2.33
2023-03-11T19:11:07.327Z,2.26
2023-03-11T19:15:12.682Z,2.17
2023-03-11T19:19:15.517Z,2.08
2023-03-11T19:23:18.456Z,1.99
2023-03-11T19:27:21.532Z,1.91
2023-03-11T19:31:25.849Z,1.83
2023-03-11T19:35:29.620Z,1.78
2023-03-11T19:39:32.580Z,1.76
2023-03-11T19:43:36.624Z,1.72
2023-03-11T19:47:41.507Z,1.64
2023-03-11T19:51:50.227Z,1.60
2023-03-11T19:55:55.530Z,1.56
2023-03-11T19:59:58.366Z,1.55
2023-03-11T20:04:03.171Z,1.53
2023-03-11T20:08:07.486Z,1.53
2023-03-11T20:12:10.627Z,1.55
2023-03-11T20:16:18.075Z,1.49
2023-03-11T20:20:22.989Z,1.51
2023-03-11T20:24:26.282Z,1.53
2023-03-11T20:28:29.194Z,1.58
2023-03-11T20:32:32.214Z,1.60
2023-03-11T20:36:36.580Z,1.61
2023-03-11T20:40:40.258Z,1.62
2023-03-11T20:44:43.323Z,1.62
2023-03-11T20:48:46.785Z,1.62
2023-03-11T20:52:51.517Z,1.57
2023-03-11T20:56:54.406Z,1.55
2023-03-11T21:00:57.516Z,1.52
2023-03-11T21:05:01.129Z,1.46
2023-03-11T21:09:07.244Z,1.40
2023-03-11T21:13:10.526Z,1.36
2023-03-11T21:17:13.480Z,1.31
2023-03-11T21:21:17.931Z,1.24
2023-03-11T21:25:22.397Z,1.16
2023-03-11T21:29:25.499Z,1.08
2023-03-11T21:33:28.837Z,1.04
2023-03-11T21:37:32.303Z,1.00
2023-03-11T21:41:36.787Z,0.98
2023-03-11T21:45:40.276Z,0.93
2023-03-11T21:49:43.199Z,0.90
2023-03-11T21:53:46.235Z,0.88
2023-03-11T21:57:50.738Z,0.87
2023-03-11T22:01:53.925Z,0.86
2023-03-11T22:05:58.404Z,0.79
2023-03-11T22:10:01.416Z,0.73
2023-03-11T22:14:05.862Z,0.69
2023-03-11T22:18:08.878Z,0.70
2023-03-11T22:22:11.774Z,0.71
2023-03-11T22:26:15.879Z,0.71
2023-03-11T22:30:20.070Z,0.73
2023-03-11T22:34:22.963Z,0.74
2023-03-11T22:38:26.844Z,0.72
2023-03-11T22:42:30.684Z,0.73
2023-03-11T22:46:34.845Z,0.69
2023-03-11T22:50:41.403Z,0.71
2023-03-11T22:54:44.430Z,0.72
2023-03-11T22:58:47.880Z,0.76
2023-03-11T23:02:56.939Z,0.76
2023-03-11T23:06:59.759Z,0.78
2023-03-11T23:11:04.516Z,0.79
2023-03-11T23:15:10.928Z,0.77
2023-03-11T23:19:15.654Z,0.73
2023-03-11T23:23:18.488Z,0.75
2023-03-11T23:27:22.213Z,0.79
2023-03-11T23:31:26.757Z,0.81
2023-03-11T23:35:31.177Z,0.82
2023-03-11T23:39:34.956Z,0.80
2023-03-11T23:43:37.817Z,0.84
2023-03-11T23:47:41.107Z,0.80
2023-03-11T23:51:45.424Z,0.80
2023-03-11T23:55:48.898Z,0.84
2023-03-11T23:59:51.987Z,0.80
